Time;durP1;ratioP1;P1;durP2;ratioP2;P2;SDS_P1;SDS_P2;PMS_P1;PMS_P2;Temp;Humidity;BMP_temperature;BMP_pressure;BME280_temperature;BME280_humidity;BME280_pressure;Samples;Min_cycle;Max_cycle;Signal;HPM_P1;HPM_P2
2023/06/10 00:02:03;;;;;;;6.78;3.63;;;22.20;1.00;;;;;;4878769;29;20101;-46
2023/06/10 00:04:30;;;;;;;7.28;3.35;;;22.20;1.00;;;;;;4882845;29;20125;-46
2023/06/10 00:06:57;;;;;;;6.63;3.30;;;22.20;1.00;;;;;;4879289;29;20048;-47
2023/06/10 00:09:24;;;;;;;6.25;3.25;;;22.10;1.00;;;;;;4878971;29;20132;-49
2023/06/10 00:11:51;;;;;;;6.47;2.72;;;22.20;1.00;;;;;;4878458;29;20045;-47
2023/06/10 00:14:18;;;;;;;4.90;3.03;;;22.10;1.00;;;;;;4879835;29;20037;-50
2023/06/10 00:16:45;;;;;;;6.35;3.45;;;22.10;1.00;;;;;;4880720;29;20101;-47
2023/06/10 00:19:15;;;;;;;8.70;3.30;;;22.20;1.00;;;;;;4879546;29;20450;-49
2023/06/10 00:21:44;;;;;;;9.23;4.57;;;22.20;1.00;;;;;;4880138;29;20413;-48
2023/06/10 00:24:11;;;;;;;6.57;3.30;;;22.20;1.00;;;;;;4883012;29;20473;-51
2023/06/10 00:26:40;;;;;;;5.93;3.60;;;22.10;1.00;;;;;;4882533;29;20045;-47
2023/06/10 00:29:08;;;;;;;6.22;4.00;;;22.10;1.00;;;;;;4881518;29;20056;-47
2023/06/10 00:31:35;;;;;;;5.15;2.83;;;22.10;1.00;;;;;;4882002;29;20124;-51
2023/06/10 00:34:02;;;;;;;7.07;3.50;;;22.10;1.00;;;;;;4882325;29;20069;-50
2023/06/10 00:36:31;;;;;;;8.13;3.03;;;22.10;1.00;;;;;;4882378;29;20041;-51
2023/06/10 00:38:58;;;;;;;5.38;2.67;;;22.10;1.00;;;;;;4881238;29;20057;-46
2023/06/10 00:41:26;;;;;;;5.20;3.28;;;22.10;1.00;;;;;;4881477;29;20053;-48
2023/06/10 00:43:53;;;;;;;5.50;3.03;;;22.10;1.00;;;;;;4881278;29;20442;-49
2023/06/10 00:46:22;;;;;;;7.13;3.10;;;22.10;1.00;;;;;;4882684;29;20134;-51
2023/06/10 00:48:49;;;;;;;7.53;2.95;;;22.10;1.00;;;;;;4881206;29;20053;-46
2023/06/10 00:51:18;;;;;;;7.78;3.40;;;22.10;1.00;;;;;;4882582;29;20573;-51
2023/06/10 00:53:45;;;;;;;5.57;2.88;;;22.10;1.00;;;;;;4881900;29;20042;-47
2023/06/10 00:56:13;;;;;;;6.80;2.90;;;22.10;1.00;;;;;;4882366;29;20052;-51
2023/06/10 00:58:40;;;;;;;5.20;2.53;;;22.10;1.00;;;;;;4882233;29;20041;-47
2023/06/10 01:01:07;;;;;;;4.45;2.65;;;22.10;1.00;;;;;;4880435;29;20144;-49
2023/06/10 01:03:36;;;;;;;6.00;3.20;;;22.10;1.00;;;;;;4880828;29;20148;-51
2023/06/10 01:06:24;;;;;;;6.35;3.03;;;22.10;1.00;;;;;;4885299;29;20057;-51
2023/06/10 01:09:06;;;;;;;7.47;3.35;;;22.10;1.00;;;;;;4882345;29;20143;-49
2023/06/10 01:12:08;;;;;;;4.32;2.75;;;22.10;1.00;;;;;;4880455;29;20143;-47
2023/06/10 01:14:36;;;;;;;6.07;3.20;;;22.10;1.00;;;;;;4880711;29;20045;-49
2023/06/10 01:17:03;;;;;;;8.52;3.42;;;22.10;1.00;;;;;;4880872;29;20077;-50
2023/06/10 01:19:31;;;;;;;5.00;3.00;;;22.10;1.00;;;;;;4882251;29;20045;-50
2023/06/10 01:22:00;;;;;;;6.90;3.65;;;22.10;1.00;;;;;;4895911;29;20500;-48
2023/06/10 01:24:28;;;;;;;4.85;3.13;;;22.10;1.00;;;;;;4882313;29;20049;-46
2023/06/10 01:26:58;;;;;;;6.07;2.78;;;22.10;1.00;;;;;;4881889;29;20144;-50
2023/06/10 01:29:37;;;;;;;4.97;2.70;;;22.10;1.00;;;;;;4880419;29;20049;-51
2023/06/10 01:32:12;;;;;;;5.63;3.00;;;22.10;1.00;;;;;;4874802;29;20037;-49
2023/06/10 01:34:42;;;;;;;6.45;3.25;;;22.10;1.00;;;;;;4879348;29;20053;-47
2023/06/10 01:37:12;;;;;;;5.43;3.20;;;22.10;1.00;;;;;;4880517;29;20049;-47
2023/06/10 01:39:39;;;;;;;5.85;2.97;;;22.10;1.00;;;;;;4865027;29;20052;-50
2023/06/10 01:42:11;;;;;;;5.63;3.38;;;22.10;1.00;;;;;;4880128;29;20052;-47
2023/06/10 01:44:39;;;;;;;6.10;3.53;;;22.10;1.00;;;;;;4880290;29;20481;-52
2023/06/10 01:47:08;;;;;;;6.13;2.45;;;22.10;1.00;;;;;;4881458;29;20041;-49
2023/06/10 01:49:35;;;;;;;5.43;3.15;;;22.00;1.00;;;;;;4879898;29;20136;-46
2023/06/10 01:52:03;;;;;;;4.38;2.83;;;22.10;1.00;;;;;;4880046;29;20061;-47
2023/06/10 01:54:34;;;;;;;4.47;2.60;;;22.10;1.00;;;;;;4880183;29;20048;-48
2023/06/10 01:57:01;;;;;;;6.63;3.00;;;22.10;1.00;;;;;;4881695;29;20093;-49
2023/06/10 01:59:28;;;;;;;5.97;2.80;;;22.00;1.00;;;;;;4880090;29;20057;-50
2023/06/10 02:01:55;;;;;;;4.75;2.22;;;22.00;1.00;;;;;;4879800;29;20045;-47
2023/06/10 02:04:22;;;;;;;4.72;2.72;;;22.00;1.00;;;;;;4883368;29;20076;-49
2023/06/10 02:06:50;;;;;;;3.55;2.80;;;22.00;1.00;;;;;;4882396;29;20072;-50
2023/06/10 02:09:18;;;;;;;5.15;3.00;;;22.00;1.00;;;;;;4881221;29;20040;-48
2023/06/10 02:11:45;;;;;;;8.30;2.78;;;22.00;1.00;;;;;;4880559;29;20097;-50
2023/06/10 02:14:12;;;;;;;6.40;3.70;;;22.00;1.00;;;;;;4879620;29;20048;-51
2023/06/10 02:16:39;;;;;;;5.35;3.35;;;22.00;1.00;;;;;;4879352;29;20059;-46
2023/06/10 02:19:06;;;;;;;5.65;3.22;;;22.00;1.00;;;;;;4879995;29;20060;-48
2023/06/10 02:21:36;;;;;;;6.82;3.28;;;22.00;1.00;;;;;;4879601;29;20057;-50
2023/06/10 02:24:03;;;;;;;4.80;2.78;;;21.90;1.00;;;;;;4873905;29;20051;-50
2023/06/10 02:26:30;;;;;;;5.57;3.63;;;22.00;1.00;;;;;;4881314;29;20048;-47
2023/06/10 02:28:59;;;;;;;4.97;2.95;;;22.00;1.00;;;;;;4880605;29;20382;-51
2023/06/10 02:31:28;;;;;;;4.28;2.95;;;22.00;1.00;;;;;;4878748;29;20045;-50
2023/06/10 02:33:56;;;;;;;4.68;2.90;;;22.00;1.00;;;;;;4880241;29;20101;-47
2023/06/10 02:36:24;;;;;;;6.38;3.13;;;22.00;1.00;;;;;;4879182;29;20513;-50
2023/06/10 02:38:51;;;;;;;5.50;3.22;;;22.00;1.00;;;;;;4878831;29;20045;-47
2023/06/10 02:41:18;;;;;;;5.32;3.15;;;22.00;1.00;;;;;;4878874;29;20048;-52
2023/06/10 02:43:45;;;;;;;5.95;3.00;;;22.00;1.00;;;;;;4886996;29;20048;-46
2023/06/10 02:46:12;;;;;;;4.55;2.67;;;22.00;1.00;;;;;;4880593;29;20469;-48
2023/06/10 02:48:43;;;;;;;5.85;2.97;;;22.00;1.00;;;;;;4878862;29;20048;-48
2023/06/10 02:51:12;;;;;;;6.55;2.95;;;22.00;1.00;;;;;;4878884;29;20060;-47
2023/06/10 02:53:42;;;;;;;4.75;2.67;;;22.00;1.00;;;;;;4878248;29;20041;-47
2023/06/10 02:56:12;;;;;;;5.57;3.33;;;21.90;1.00;;;;;;4878931;29;20112;-48
2023/06/10 02:58:39;;;;;;;4.45;2.72;;;21.90;1.00;;;;;;4879273;29;20052;-50
2023/06/10 03:01:09;;;;;;;4.38;2.83;;;21.90;1.00;;;;;;4878272;29;20446;-47
2023/06/10 03:03:46;;;;;;;6.13;2.97;;;21.90;1.00;;;;;;4879176;29;20055;-47
2023/06/10 03:06:15;;;;;;;5.50;2.90;;;21.90;1.00;;;;;;4878621;29;20082;-47
2023/06/10 03:08:42;;;;;;;6.38;3.28;;;21.90;1.00;;;;;;4878747;29;20060;-50
2023/06/10 03:11:13;;;;;;;4.03;2.50;;;21.90;1.00;;;;;;4878850;29;20432;-48
2023/06/10 03:13:41;;;;;;;7.07;3.40;;;21.90;1.00;;;;;;4878020;29;20045;-51
2023/06/10 03:16:12;;;;;;;3.45;2.30;;;21.90;1.00;;;;;;4878101;29;20037;-50
2023/06/10 03:18:40;;;;;;;6.45;3.33;;;21.90;1.00;;;;;;4878568;29;20045;-49
2023/06/10 03:21:08;;;;;;;7.10;3.17;;;21.90;1.00;;;;;;4877862;29;20564;-46
2023/06/10 03:23:36;;;;;;;5.50;2.80;;;21.90;1.00;;;;;;4878756;29;20045;-49
2023/06/10 03:26:04;;;;;;;4.22;3.22;;;21.90;1.00;;;;;;4872191;29;20084;-50
2023/06/10 03:28:32;;;;;;;4.10;2.78;;;21.90;1.00;;;;;;4878773;29;20057;-49
2023/06/10 03:31:00;;;;;;;5.68;3.10;;;21.80;1.00;;;;;;4879548;29;20037;-51
2023/06/10 03:33:29;;;;;;;4.28;2.97;;;21.90;1.00;;;;;;4879021;29;20053;-46
2023/06/10 03:35:56;;;;;;;5.40;3.30;;;21.90;1.00;;;;;;4878611;29;20135;-47
2023/06/10 03:38:24;;;;;;;3.92;3.03;;;21.90;1.00;;;;;;4878848;29;20041;-48
2023/06/10 03:40:51;;;;;;;6.68;2.90;;;21.90;1.00;;;;;;4879311;29;20073;-49
2023/06/10 03:43:18;;;;;;;5.10;3.08;;;21.80;1.00;;;;;;4878548;29;20052;-47
2023/06/10 03:45:45;;;;;;;5.00;2.70;;;21.90;1.00;;;;;;4879593;29;20051;-46
2023/06/10 03:48:12;;;;;;;6.07;3.58;;;21.80;1.00;;;;;;4878409;29;20045;-48
2023/06/10 03:50:47;;;;;;;7.65;3.22;;;21.80;1.00;;;;;;4878123;29;20049;-48
2023/06/10 03:53:14;;;;;;;5.85;2.85;;;21.80;1.00;;;;;;4878691;29;20132;-50
2023/06/10 03:55:43;;;;;;;5.65;2.97;;;21.80;1.00;;;;;;4878506;29;20049;-49
2023/06/10 03:58:12;;;;;;;4.72;2.80;;;21.80;1.00;;;;;;4883054;29;20033;-51
2023/06/10 04:00:41;;;;;;;5.53;2.83;;;21.80;1.00;;;;;;4881132;29;20087;-47
2023/06/10 04:03:09;;;;;;;6.32;2.90;;;21.80;1.00;;;;;;4882953;29;20052;-46
2023/06/10 04:05:41;;;;;;;5.82;2.95;;;21.80;1.00;;;;;;4881610;29;20454;-48
2023/06/10 04:08:08;;;;;;;7.53;3.40;;;21.80;1.00;;;;;;4882787;29;20049;-47
2023/06/10 04:10:35;;;;;;;5.03;2.85;;;21.80;1.00;;;;;;4890816;29;20045;-49
2023/06/10 04:13:03;;;;;;;4.65;3.20;;;21.80;1.00;;;;;;4897086;29;20048;-47
2023/06/10 04:15:36;;;;;;;;;;;21.80;1.00;;;;;;4882283;29;20052;-48
2023/06/10 04:18:07;;;;;;;5.40;3.05;;;21.80;1.00;;;;;;4890041;29;19923;-51
2023/06/10 04:20:34;;;;;;;4.65;2.92;;;21.80;1.00;;;;;;4881088;29;20057;-48
2023/06/10 04:23:01;;;;;;;6.18;2.53;;;21.80;1.00;;;;;;4881288;29;20462;-50
2023/06/10 04:25:30;;;;;;;6.70;3.17;;;21.80;1.00;;;;;;4881530;29;20110;-48
2023/06/10 04:27:57;;;;;;;4.95;3.38;;;21.70;1.00;;;;;;4881321;29;20056;-46
2023/06/10 04:30:24;;;;;;;6.57;3.47;;;21.80;1.00;;;;;;4881280;29;20053;-49
2023/06/10 04:32:52;;;;;;;6.65;2.85;;;21.80;1.00;;;;;;4881439;29;20109;-46
2023/06/10 04:35:19;;;;;;;5.43;3.03;;;21.80;1.00;;;;;;4881228;29;20049;-46
2023/06/10 04:37:48;;;;;;;7.22;3.78;;;21.80;1.00;;;;;;4881059;29;20105;-49
2023/06/10 04:40:15;;;;;;;6.13;2.60;;;21.80;1.00;;;;;;4881210;29;20096;-48
2023/06/10 04:42:43;;;;;;;5.80;3.38;;;21.80;1.00;;;;;;4880865;29;20053;-49
2023/06/10 04:45:10;;;;;;;5.13;2.90;;;21.70;1.00;;;;;;4883019;29;20505;-46
2023/06/10 04:47:37;;;;;;;5.97;3.10;;;21.80;1.00;;;;;;4882832;29;20125;-48
2023/06/10 04:50:05;;;;;;;5.07;3.33;;;21.70;1.00;;;;;;4881287;29;20573;-49
2023/06/10 04:52:33;;;;;;;6.90;3.53;;;21.70;1.00;;;;;;4882213;29;20069;-46
2023/06/10 04:55:00;;;;;;;6.60;2.83;;;21.70;1.00;;;;;;4880875;29;20052;-48
2023/06/10 04:57:27;;;;;;;8.48;3.38;;;21.70;1.00;;;;;;4881955;29;20048;-49
2023/06/10 04:59:54;;;;;;;4.65;2.90;;;21.70;1.00;;;;;;4882453;29;20052;-49
2023/06/10 05:02:21;;;;;;;6.78;3.25;;;21.70;1.00;;;;;;4882023;29;20096;-46
2023/06/10 05:04:48;;;;;;;6.10;3.13;;;21.70;1.00;;;;;;4888401;29;20043;-49
2023/06/10 05:07:15;;;;;;;5.20;3.38;;;21.70;1.00;;;;;;4880392;29;20127;-49
2023/06/10 05:09:41;;;;;;;5.63;2.42;;;21.70;1.00;;;;;;4880989;29;20060;-51
2023/06/10 05:12:08;;;;;;;5.13;3.28;;;21.70;1.00;;;;;;4881424;29;20120;-48
2023/06/10 05:14:35;;;;;;;4.70;2.92;;;21.70;1.00;;;;;;4881929;29;20049;-50
2023/06/10 05:17:02;;;;;;;6.00;3.50;;;21.70;1.00;;;;;;4882022;29;20048;-48
2023/06/10 05:19:29;;;;;;;4.70;3.20;;;21.70;1.00;;;;;;4880335;29;20067;-49
2023/06/10 05:21:56;;;;;;;7.60;4.40;;;21.70;1.00;;;;;;4881767;29;20077;-45
2023/06/10 05:24:23;;;;;;;5.18;2.97;;;21.70;1.00;;;;;;4881807;29;20057;-45
2023/06/10 05:26:50;;;;;;;6.30;3.25;;;21.70;1.00;;;;;;4881401;29;20073;-50
2023/06/10 05:29:17;;;;;;;6.32;3.58;;;21.70;1.00;;;;;;4881581;29;20053;-48
2023/06/10 05:31:43;;;;;;;5.43;3.58;;;21.70;1.00;;;;;;4879980;29;20049;-48
2023/06/10 05:34:10;;;;;;;4.85;3.50;;;21.70;1.00;;;;;;4872860;29;20073;-47
2023/06/10 05:36:37;;;;;;;5.25;3.05;;;21.70;1.00;;;;;;4881515;29;20397;-46
2023/06/10 05:39:04;;;;;;;5.45;3.28;;;21.70;1.00;;;;;;4881393;29;20053;-48
2023/06/10 05:41:31;;;;;;;5.75;3.08;;;21.70;1.00;;;;;;4881406;29;20041;-49
2023/06/10 05:43:57;;;;;;;5.50;2.90;;;21.70;1.00;;;;;;4881311;29;20517;-46
2023/06/10 05:46:24;;;;;;;5.55;3.20;;;21.70;1.00;;;;;;4881493;29;20076;-49
2023/06/10 05:48:51;;;;;;;5.30;3.08;;;21.70;1.00;;;;;;4880118;29;20140;-48
2023/06/10 05:51:18;;;;;;;5.05;3.05;;;21.70;1.00;;;;;;4879685;29;20045;-46
2023/06/10 05:53:46;;;;;;;6.18;3.38;;;21.70;1.00;;;;;;4881100;29;20041;-49
2023/06/10 05:56:14;;;;;;;4.82;3.35;;;21.70;1.00;;;;;;4873862;29;20109;-46
2023/06/10 05:58:41;;;;;;;5.70;3.65;;;21.70;1.00;;;;;;4881572;29;20045;-49
2023/06/10 06:01:08;;;;;;;3.70;2.80;;;21.70;1.00;;;;;;4880216;29;20128;-47
2023/06/10 06:03:35;;;;;;;7.35;2.92;;;21.70;1.00;;;;;;4880572;29;20071;-47
2023/06/10 06:06:03;;;;;;;5.13;2.95;;;21.80;1.00;;;;;;4885870;29;20060;-46
2023/06/10 06:08:30;;;;;;;4.70;2.90;;;21.70;1.00;;;;;;4880598;29;20053;-47
2023/06/10 06:10:57;;;;;;;5.93;2.65;;;21.70;1.00;;;;;;4880108;29;20041;-47
2023/06/10 06:13:24;;;;;;;8.13;3.00;;;21.80;1.00;;;;;;4879671;29;20109;-51
2023/06/10 06:15:51;;;;;;;5.15;3.00;;;21.80;1.00;;;;;;4880971;29;20072;-47
2023/06/10 06:18:18;;;;;;;6.57;3.35;;;21.80;1.00;;;;;;4879886;29;20049;-51
2023/06/10 06:20:45;;;;;;;5.03;3.13;;;21.80;1.00;;;;;;4879961;29;20049;-51
2023/06/10 06:23:12;;;;;;;3.83;2.85;;;21.80;1.00;;;;;;4879533;29;20037;-47
2023/06/10 06:25:39;;;;;;;6.47;3.72;;;21.80;1.00;;;;;;4880414;29;20055;-47
2023/06/10 06:28:08;;;;;;;4.30;3.28;;;21.80;1.00;;;;;;4879910;29;20045;-46
2023/06/10 06:30:35;;;;;;;7.07;3.40;;;21.90;1.00;;;;;;4880024;29;20440;-49
2023/06/10 06:33:02;;;;;;;5.60;3.15;;;21.80;1.00;;;;;;4880049;29;20069;-46
2023/06/10 06:35:33;;;;;;;6.47;2.65;;;21.90;1.00;;;;;;4879759;29;20045;-47
2023/06/10 06:38:00;;;;;;;5.15;2.70;;;21.90;1.00;;;;;;4878916;29;20521;-46
2023/06/10 06:40:29;;;;;;;6.28;2.70;;;21.90;1.00;;;;;;4878974;29;20048;-52
2023/06/10 06:42:56;;;;;;;4.30;2.80;;;21.90;1.00;;;;;;4880160;29;20049;-48
2023/06/10 06:45:39;;;;;;;5.45;2.72;;;21.90;1.00;;;;;;4879095;29;20147;-50
2023/06/10 06:48:06;;;;;;;4.47;3.00;;;21.90;1.00;;;;;;4879960;29;20053;-47
2023/06/10 06:50:33;;;;;;;4.82;2.78;;;21.90;1.00;;;;;;4879928;29;20049;-48
2023/06/10 06:52:59;;;;;;;3.25;2.40;;;22.00;1.00;;;;;;4880117;29;20045;-50
2023/06/10 06:55:26;;;;;;;7.40;2.63;;;21.90;1.00;;;;;;4880186;29;20049;-46
2023/06/10 06:57:53;;;;;;;4.95;2.85;;;21.90;1.00;;;;;;4879478;29;20060;-48
2023/06/10 07:00:20;;;;;;;5.63;3.08;;;22.00;1.00;;;;;;4880093;29;20063;-46
2023/06/10 07:02:48;;;;;;;4.53;2.83;;;21.90;1.00;;;;;;4879791;29;20056;-47
2023/06/10 07:05:15;;;;;;;4.13;2.58;;;22.00;1.00;;;;;;4887235;29;20055;-51
2023/06/10 07:07:42;;;;;;;3.88;2.35;;;22.00;1.00;;;;;;4880071;29;20049;-50
2023/06/10 07:10:10;;;;;;;4.90;3.05;;;22.00;1.00;;;;;;4879760;29;20045;-47
2023/06/10 07:12:36;;;;;;;5.43;2.95;;;22.00;1.00;;;;;;4879808;29;20044;-50
2023/06/10 07:15:04;;;;;;;3.25;2.50;;;22.00;1.00;;;;;;4880095;29;20128;-48
2023/06/10 07:17:31;;;;;;;5.30;2.80;;;22.10;1.00;;;;;;4879782;29;20666;-47
2023/06/10 07:19:59;;;;;;;4.93;3.20;;;22.10;1.00;;;;;;4879845;29;20049;-49
2023/06/10 07:22:26;;;;;;;8.85;4.00;;;22.10;1.00;;;;;;4879623;29;20053;-48
2023/06/10 07:24:54;;;;;;;4.18;2.63;;;22.10;1.00;;;;;;4879642;29;20131;-46
2023/06/10 07:27:21;;;;;;;6.43;2.85;;;22.10;1.00;;;;;;4879743;29;20053;-46
2023/06/10 07:29:48;;;;;;;8.07;2.65;;;22.10;1.00;;;;;;4879555;29;20060;-48
2023/06/10 07:32:15;;;;;;;9.60;3.53;;;22.10;1.00;;;;;;4881405;29;20121;-50
2023/06/10 07:34:45;;;;;;;6.90;2.90;;;22.10;1.00;;;;;;4883609;29;20489;-47
2023/06/10 07:37:11;;;;;;;4.00;2.50;;;22.10;1.00;;;;;;4882192;29;20068;-46
2023/06/10 07:39:38;;;;;;;5.97;2.90;;;22.10;1.00;;;;;;4903899;29;20135;-48
2023/06/10 07:42:06;;;;;;;4.30;2.72;;;22.20;1.00;;;;;;4884994;29;20049;-47
2023/06/10 07:44:32;;;;;;;4.32;2.80;;;22.20;1.00;;;;;;4883597;29;20056;-49
2023/06/10 07:46:59;;;;;;;5.38;2.40;;;22.20;1.00;;;;;;4882896;29;20052;-46
2023/06/10 07:49:26;;;;;;;4.55;2.70;;;22.20;1.00;;;;;;4883143;29;20045;-46
2023/06/10 07:51:56;;;;;;;5.72;3.30;;;22.20;1.00;;;;;;4882724;29;20079;-46
2023/06/10 07:54:23;;;;;;;5.40;3.08;;;22.20;1.00;;;;;;4883054;29;20046;-49
2023/06/10 07:56:53;;;;;;;3.45;2.05;;;22.20;1.00;;;;;;4882506;29;20138;-47
2023/06/10 07:59:20;;;;;;;8.00;2.75;;;22.20;1.00;;;;;;4875780;29;20389;-46
2023/06/10 08:01:46;;;;;;;4.38;2.75;;;22.20;1.00;;;;;;4882662;29;20045;-46
2023/06/10 08:04:14;;;;;;;3.60;2.30;;;22.20;1.00;;;;;;4883404;29;20088;-49
2023/06/10 08:06:41;;;;;;;3.80;2.70;;;22.20;1.00;;;;;;4887605;29;20049;-47
2023/06/10 08:09:08;;;;;;;5.10;2.55;;;22.20;1.00;;;;;;4882407;29;20581;-49
2023/06/10 08:11:35;;;;;;;5.63;2.92;;;22.30;1.00;;;;;;4882576;29;20072;-48
2023/06/10 08:14:02;;;;;;;5.97;2.80;;;22.30;1.00;;;;;;4882541;29;20053;-48
2023/06/10 08:16:29;;;;;;;4.82;2.95;;;22.30;1.00;;;;;;4882820;29;20553;-48
2023/06/10 08:18:55;;;;;;;6.45;2.65;;;22.30;1.00;;;;;;4882640;29;20083;-48
2023/06/10 08:21:22;;;;;;;4.45;2.78;;;22.30;1.00;;;;;;4882412;29;20536;-48
2023/06/10 08:23:53;;;;;;;3.70;2.63;;;22.30;1.00;;;;;;4882560;29;20078;-48
2023/06/10 08:26:20;;;;;;;3.35;2.53;;;22.30;1.00;;;;;;4874973;29;20092;-49
2023/06/10 08:28:47;;;;;;;4.85;2.50;;;22.30;1.00;;;;;;4882896;29;20613;-47
2023/06/10 08:31:13;;;;;;;4.05;2.58;;;22.30;1.00;;;;;;4881584;29;20054;-50
2023/06/10 08:33:41;;;;;;;3.97;2.88;;;22.30;1.00;;;;;;4882205;29;20037;-46
2023/06/10 08:36:08;;;;;;;3.70;2.55;;;22.30;1.00;;;;;;4882307;29;20486;-49
2023/06/10 08:38:35;;;;;;;4.90;2.50;;;22.30;1.00;;;;;;4882421;29;20393;-48
2023/06/10 08:41:06;;;;;;;5.53;3.28;;;22.30;1.00;;;;;;4881707;29;20156;-48
2023/06/10 08:44:12;;;;;;;4.88;2.67;;;22.30;1.00;;;;;;4880614;29;20060;-48
2023/06/10 08:46:43;;;;;;;5.15;2.90;;;22.30;1.00;;;;;;4876675;29;20064;-46
2023/06/10 08:49:14;;;;;;;4.00;2.55;;;22.30;1.00;;;;;;4881656;29;20500;-45
2023/06/10 08:51:42;;;;;;;4.50;2.38;;;22.30;1.00;;;;;;4881405;29;20434;-50
2023/06/10 08:54:18;;;;;;;4.38;2.17;;;22.30;1.00;;;;;;4881390;29;20052;-47
2023/06/10 08:56:51;;;;;;;4.53;2.40;;;22.30;1.00;;;;;;4880096;29;20052;-48
2023/06/10 08:59:18;;;;;;;4.35;2.10;;;22.30;1.00;;;;;;4881432;29;20052;-48
2023/06/10 09:01:46;;;;;;;5.53;2.75;;;22.40;1.00;;;;;;4880051;29;20076;-49
2023/06/10 09:04:13;;;;;;;5.72;2.67;;;22.40;1.00;;;;;;4881833;29;20041;-48
2023/06/10 09:06:40;;;;;;;3.63;2.20;;;22.30;1.00;;;;;;4881632;29;20049;-46
2023/06/10 09:09:07;;;;;;;5.55;2.75;;;22.40;1.00;;;;;;4881313;29;20049;-46
2023/06/10 09:11:34;;;;;;;4.18;2.25;;;22.40;1.00;;;;;;4880848;29;20076;-49
2023/06/10 09:14:01;;;;;;;4.40;2.35;;;22.40;1.00;;;;;;4881335;29;20049;-50
2023/06/10 09:16:28;;;;;;;6.93;2.65;;;22.40;1.00;;;;;;4880028;29;20528;-46
2023/06/10 09:18:56;;;;;;;3.05;1.98;;;22.40;1.00;;;;;;4881297;29;20120;-49
2023/06/10 09:21:23;;;;;;;4.68;2.42;;;22.40;1.00;;;;;;4873305;29;20053;-48
2023/06/10 09:23:51;;;;;;;4.65;2.63;;;22.40;1.00;;;;;;4881158;29;20045;-46
2023/06/10 09:26:18;;;;;;;3.25;2.22;;;22.40;1.00;;;;;;4881428;29;20730;-46
2023/06/10 09:28:49;;;;;;;3.30;2.58;;;22.40;1.00;;;;;;4881565;29;20497;-50
2023/06/10 09:31:18;;;;;;;4.68;2.08;;;22.40;1.00;;;;;;4880628;29;20037;-47
2023/06/10 09:33:45;;;;;;;5.32;2.70;;;22.40;1.00;;;;;;4887519;29;20048;-47
2023/06/10 09:36:22;;;;;;;4.72;2.38;;;22.40;1.00;;;;;;4880593;29;20119;-47
2023/06/10 09:38:50;;;;;;;5.93;2.83;;;22.40;1.00;;;;;;4880750;29;20060;-46
2023/06/10 09:41:17;;;;;;;5.32;3.50;;;22.40;1.00;;;;;;4878844;29;20053;-46
2023/06/10 09:43:46;;;;;;;2.78;1.75;;;22.40;1.00;;;;;;4880194;29;20049;-48
2023/06/10 09:46:17;;;;;;;6.03;3.08;;;22.40;1.00;;;;;;4880367;29;20044;-50
2023/06/10 09:48:46;;;;;;;5.07;2.38;;;22.40;1.00;;;;;;4880391;29;20132;-47
2023/06/10 09:51:14;;;;;;;3.78;2.28;;;22.40;1.00;;;;;;4879585;29;20105;-49
2023/06/10 09:53:41;;;;;;;6.45;3.42;;;22.40;1.00;;;;;;4880115;29;20125;-46
2023/06/10 09:56:08;;;;;;;3.88;2.67;;;22.50;1.00;;;;;;4879836;29;20493;-46
2023/06/10 09:58:43;;;;;;;4.43;2.40;;;22.50;1.00;;;;;;4879989;29;20092;-46
2023/06/10 10:01:10;;;;;;;;;;;22.50;1.00;;;;;;4880577;29;20055;-46
2023/06/10 10:03:48;;;;;;;3.17;2.05;;;22.40;1.00;;;;;;4879902;29;19924;-48
2023/06/10 10:06:16;;;;;;;6.32;2.83;;;22.40;1.00;;;;;;4880330;29;20124;-46
2023/06/10 10:08:45;;;;;;;4.50;2.50;;;22.40;1.00;;;;;;4880297;29;20116;-48
2023/06/10 10:11:14;;;;;;;3.65;2.28;;;22.50;1.00;;;;;;4880190;29;20557;-46
2023/06/10 10:13:41;;;;;;;5.07;2.75;;;22.40;1.00;;;;;;4880601;29;20040;-46
2023/06/10 10:16:15;;;;;;;3.38;2.00;;;22.50;1.00;;;;;;4880530;29;20041;-46
2023/06/10 10:18:45;;;;;;;3.35;2.20;;;22.50;1.00;;;;;;4881007;29;20041;-46
2023/06/10 10:21:15;;;;;;;3.83;2.30;;;22.50;1.00;;;;;;4878217;29;20053;-46
2023/06/10 10:23:48;;;;;;;4.40;2.25;;;22.50;1.00;;;;;;4881411;29;20498;-46
2023/06/10 10:26:16;;;;;;;4.47;2.88;;;22.50;1.00;;;;;;4879705;29;20068;-46
2023/06/10 10:29:05;;;;;;;6.00;2.55;;;22.50;1.00;;;;;;4879615;29;20049;-46
2023/06/10 10:31:34;;;;;;;4.78;2.65;;;22.50;1.00;;;;;;4872627;29;20486;-46
2023/06/10 10:34:06;;;;;;;3.55;2.22;;;22.50;1.00;;;;;;4879942;29;20033;-48
2023/06/10 10:36:35;;;;;;;5.60;2.20;;;22.50;1.00;;;;;;4872963;29;20052;-46
2023/06/10 10:39:04;;;;;;;5.68;2.47;;;22.50;1.00;;;;;;4879619;29;20044;-47
2023/06/10 10:41:32;;;;;;;7.60;2.78;;;22.50;1.00;;;;;;4878491;29;20053;-47
2023/06/10 10:44:00;;;;;;;3.55;2.30;;;22.50;1.00;;;;;;4879942;29;20053;-47
2023/06/10 10:46:27;;;;;;;4.25;2.05;;;22.50;1.00;;;;;;4881932;29;20057;-46
2023/06/10 10:48:56;;;;;;;3.92;2.22;;;22.50;1.00;;;;;;4883068;29;20112;-46
2023/06/10 10:51:24;;;;;;;3.40;2.22;;;22.50;1.00;;;;;;4882558;29;20593;-47
2023/06/10 10:54:12;;;;;;;5.47;2.42;;;22.50;1.00;;;;;;4883021;29;20097;-48
2023/06/10 10:56:39;;;;;;;3.85;2.47;;;22.60;1.00;;;;;;4882721;29;20049;-46
2023/06/10 10:59:07;;;;;;;6.43;2.78;;;22.50;1.00;;;;;;4882974;29;20045;-48
2023/06/10 11:01:46;;;;;;;5.43;2.72;;;22.50;1.00;;;;;;4882869;29;20515;-47
2023/06/10 11:04:13;;;;;;;5.05;2.30;;;22.50;1.00;;;;;;4883863;29;20064;-48
2023/06/10 11:06:53;;;;;;;6.10;3.03;;;22.50;1.00;;;;;;4883821;29;20075;-47
2023/06/10 11:09:28;;;;;;;3.42;2.13;;;22.50;1.00;;;;;;4883188;29;20053;-46
2023/06/10 11:12:01;;;;;;;3.92;2.20;;;22.50;1.00;;;;;;4882462;29;20076;-48
2023/06/10 11:14:29;;;;;;;;;;;22.50;1.00;;;;;;4882892;29;20051;-47
2023/06/10 11:16:59;;;;;;;3.38;2.17;;;22.50;1.00;;;;;;4880976;29;20448;-52
2023/06/10 11:19:38;;;;;;;2.72;1.98;;;22.50;1.00;;;;;;4879463;29;20061;-49
2023/06/10 11:22:09;;;;;;;3.72;2.42;;;22.50;1.00;;;;;;4879165;29;20037;-48
2023/06/10 11:24:37;;;;;;;6.10;2.80;;;22.50;1.00;;;;;;4879751;29;20043;-47
2023/06/10 11:27:26;;;;;;;4.45;2.13;;;22.50;1.00;;;;;;4879627;29;20105;-47
2023/06/10 11:30:00;;;;;;;3.75;2.45;;;22.50;1.00;;;;;;4879709;29;20048;-49
2023/06/10 11:32:35;;;;;;;3.72;2.10;;;22.50;1.00;;;;;;4879235;29;20061;-49
2023/06/10 11:35:04;;;;;;;4.50;2.40;;;22.60;1.00;;;;;;4880022;29;20501;-49
2023/06/10 11:37:30;;;;;;;3.13;1.88;;;22.50;1.00;;;;;;4878572;29;20140;-47
2023/06/10 11:39:58;;;;;;;5.05;2.40;;;22.60;1.00;;;;;;4879448;29;20053;-50
2023/06/10 11:42:25;;;;;;;5.40;2.25;;;22.60;1.00;;;;;;4878877;29;20045;-48
2023/06/10 11:44:53;;;;;;;4.82;2.78;;;22.60;1.00;;;;;;4894139;29;20061;-50
2023/06/10 11:47:21;;;;;;;5.43;2.80;;;22.50;1.00;;;;;;4879435;29;20057;-50
2023/06/10 11:49:57;;;;;;;4.78;2.60;;;22.60;1.00;;;;;;4879685;29;20085;-48
2023/06/10 11:52:29;;;;;;;5.35;2.78;;;22.50;1.00;;;;;;4879567;29;20053;-50
2023/06/10 11:54:56;;;;;;;4.28;2.63;;;22.60;1.00;;;;;;4880366;29;20045;-49
2023/06/10 11:57:23;;;;;;;4.15;2.25;;;22.60;1.00;;;;;;4879094;29;20048;-51
2023/06/10 11:59:50;;;;;;;4.03;3.08;;;22.50;1.00;;;;;;4879421;29;20037;-49
2023/06/10 12:02:18;;;;;;;4.13;2.33;;;22.60;1.00;;;;;;4878924;29;20132;-50
2023/06/10 12:04:45;;;;;;;5.15;2.60;;;22.60;1.00;;;;;;4881122;29;20391;-45
2023/06/10 12:07:19;;;;;;;5.10;3.13;;;22.60;1.00;;;;;;4879614;29;20072;-48
2023/06/10 12:09:46;;;;;;;3.45;2.05;;;22.60;1.00;;;;;;4879294;29;20053;-50
2023/06/10 12:12:13;;;;;;;3.58;2.45;;;22.60;1.00;;;;;;4878691;29;20101;-47
2023/06/10 12:14:58;;;;;;;4.07;2.63;;;22.60;1.00;;;;;;4878583;29;20041;-49
2023/06/10 12:17:32;;;;;;;6.80;1.92;;;22.60;1.00;;;;;;4878930;29;20474;-48
2023/06/10 12:20:00;;;;;;;4.22;2.50;;;22.60;1.00;;;;;;4882897;29;20041;-46
2023/06/10 12:22:35;;;;;;;5.53;2.53;;;22.60;1.00;;;;;;4882309;29;20417;-50
2023/06/10 12:25:04;;;;;;;3.55;2.28;;;22.60;1.00;;;;;;4883081;29;20496;-48
2023/06/10 12:27:33;;;;;;;5.32;2.60;;;22.60;1.00;;;;;;4881936;29;20045;-50
2023/06/10 12:30:04;;;;;;;3.67;2.75;;;22.60;1.00;;;;;;4882759;29;20080;-49
2023/06/10 12:32:42;;;;;;;6.15;2.40;;;22.50;1.00;;;;;;4884848;29;20040;-51
2023/06/10 12:35:12;;;;;;;4.38;2.55;;;22.60;1.00;;;;;;4884582;29;20088;-48
2023/06/10 12:37:40;;;;;;;5.32;2.28;;;22.60;1.00;;;;;;4888106;29;20065;-48
2023/06/10 12:40:10;;;;;;;4.35;2.65;;;22.60;1.00;;;;;;4882262;29;20037;-48
2023/06/10 12:42:37;;;;;;;4.07;2.38;;;22.60;1.00;;;;;;4882672;29;20434;-47
2023/06/10 12:45:06;;;;;;;4.95;2.05;;;22.60;1.00;;;;;;4882638;29;20037;-48
2023/06/10 12:47:40;;;;;;;4.30;2.28;;;22.60;1.00;;;;;;4882393;29;20087;-51
2023/06/10 12:50:07;;;;;;;3.92;1.83;;;22.60;1.00;;;;;;4880775;29;20453;-51
2023/06/10 12:52:34;;;;;;;4.38;2.47;;;22.50;1.00;;;;;;4881963;29;20037;-48
2023/06/10 12:55:02;;;;;;;3.97;2.88;;;22.60;1.00;;;;;;4882144;29;20465;-48
2023/06/10 12:57:29;;;;;;;4.75;2.33;;;22.60;1.00;;;;;;4881757;29;20045;-47
2023/06/10 13:00:03;;;;;;;5.55;2.75;;;22.60;1.00;;;;;;4882057;29;20118;-48
2023/06/10 13:02:29;;;;;;;5.03;2.78;;;22.60;1.00;;;;;;4881457;29;20127;-50
2023/06/10 13:04:56;;;;;;;5.38;2.63;;;22.60;1.00;;;;;;4884099;29;20045;-47
2023/06/10 13:07:23;;;;;;;5.22;3.13;;;22.60;1.00;;;;;;4881587;29;20049;-49